createdAt,value
2023-03-22T00:00:17.642Z,64.04
2023-03-22T00:02:44.787Z,63.83
2023-03-22T00:05:11.863Z,64.19
2023-03-22T00:07:41.107Z,63.92
2023-03-22T00:10:08.532Z,64.64
2023-03-22T00:12:35.744Z,64.43
2023-03-22T00:15:02.888Z,64.63
2023-03-22T00:17:31.139Z,64.95
2023-03-22T00:19:58.472Z,64.53
2023-03-22T00:22:26.215Z,64.47
2023-03-22T00:24:53.263Z,64.74
2023-03-22T00:27:20.564Z,64.77
2023-03-22T00:29:47.683Z,64.54
2023-03-22T00:32:16.293Z,64.50
2023-03-22T00:34:43.523Z,64.44
2023-03-22T00:37:10.652Z,64.03
2023-03-22T00:39:37.901Z,63.75
2023-03-22T00:42:06.836Z,63.89
2023-03-22T00:44:33.839Z,63.63
2023-03-22T00:47:01.197Z,63.49
2023-03-22T00:49:29.321Z,63.26
2023-03-22T00:51:56.628Z,63.00
2023-03-22T00:54:23.570Z,62.74
2023-03-22T00:56:50.798Z,63.42
2023-03-22T00:59:18.095Z,63.44
2023-03-22T01:01:45.188Z,63.41
2023-03-22T01:04:18.088Z,63.39
2023-03-22T01:06:47.295Z,63.45
2023-03-22T01:09:15.221Z,63.69
2023-03-22T01:11:43.616Z,63.69
2023-03-22T01:14:13.994Z,63.37
2023-03-22T01:16:41.293Z,63.54
2023-03-22T01:19:08.817Z,64.26
2023-03-22T01:21:35.980Z,64.46
2023-03-22T01:24:03.476Z,64.68
2023-03-22T01:26:30.674Z,64.69
2023-03-22T01:28:57.792Z,65.01
2023-03-22T01:31:25.045Z,64.78
2023-03-22T01:33:52.161Z,64.83
2023-03-22T01:36:21.168Z,64.62
2023-03-22T01:38:48.237Z,64.70
2023-03-22T01:41:17.270Z,64.77
2023-03-22T01:43:45.095Z,64.32
2023-03-22T01:46:12.394Z,65.02
2023-03-22T01:48:46.190Z,64.30
2023-03-22T01:51:14.635Z,64.86
2023-03-22T01:53:58.709Z,64.81
2023-03-22T01:56:28.810Z,64.51
2023-03-22T01:58:56.542Z,64.62
2023-03-22T02:01:33.847Z,64.57
2023-03-22T02:04:15.274Z,64.24
2023-03-22T02:06:43.097Z,64.12
2023-03-22T02:09:22.160Z,64.17
2023-03-22T02:12:08.683Z,64.42
2023-03-22T02:14:56.534Z,64.36
2023-03-22T02:18:17.268Z,64.54
2023-03-22T02:21:10.554Z,63.79
2023-03-22T02:23:46.626Z,63.95
2023-03-22T02:26:50.781Z,63.82
2023-03-22T02:29:38.223Z,63.72
2023-03-22T02:32:41.325Z,63.71
2023-03-22T02:35:19.037Z,63.59
2023-03-22T02:37:55.454Z,63.75
2023-03-22T02:40:34.769Z,63.40
2023-03-22T02:43:18.492Z,63.64
2023-03-22T02:45:54.625Z,63.34
2023-03-22T02:48:27.674Z,62.99
2023-03-22T02:51:10.702Z,62.98
2023-03-22T02:54:03.870Z,63.05
2023-03-22T02:56:39.457Z,62.83
2023-03-22T02:59:12.077Z,63.30
2023-03-22T03:02:02.028Z,63.71
2023-03-22T03:04:33.391Z,64.38
2023-03-22T03:07:06.132Z,64.23
2023-03-22T03:09:33.774Z,64.28
2023-03-22T03:12:00.839Z,64.66
2023-03-22T03:14:31.288Z,64.34
2023-03-22T03:17:17.235Z,64.33
2023-03-22T03:20:00.570Z,64.59
2023-03-22T03:22:59.008Z,64.55
2023-03-22T03:25:29.128Z,64.50
2023-03-22T03:28:11.578Z,64.52
2023-03-22T03:30:57.257Z,64.29
2023-03-22T03:33:28.283Z,64.19
2023-03-22T03:36:11.817Z,63.88
2023-03-22T03:38:45.500Z,63.95
2023-03-22T03:41:20.341Z,63.70
2023-03-22T03:43:51.690Z,63.67
2023-03-22T03:46:19.156Z,63.45
2023-03-22T03:48:49.725Z,63.52
2023-03-22T03:51:17.124Z,63.52
2023-03-22T03:53:44.472Z,63.04
2023-03-22T03:56:11.884Z,62.94
2023-03-22T03:58:43.942Z,63.28
2023-03-22T04:01:11.689Z,62.37
2023-03-22T04:03:50.844Z,62.44
2023-03-22T04:06:36.226Z,62.31
2023-03-22T04:09:09.820Z,62.14
2023-03-22T04:11:41.788Z,62.69
2023-03-22T04:14:09.087Z,62.73
2023-03-22T04:16:36.413Z,62.82
2023-03-22T04:19:04.320Z,62.88
2023-03-22T04:21:31.364Z,62.83
2023-03-22T04:24:01.010Z,62.89
2023-03-22T04:26:34.099Z,62.98
2023-03-22T04:29:14.922Z,62.72
2023-03-22T04:31:46.901Z,62.70
2023-03-22T04:34:39.484Z,62.78
2023-03-22T04:37:14.011Z,62.60
2023-03-22T04:39:48.542Z,62.42
2023-03-22T04:42:36.202Z,62.46
2023-03-22T04:45:12.540Z,61.89
2023-03-22T04:47:41.302Z,61.99
2023-03-22T04:50:09.363Z,61.92
2023-03-22T04:52:44.935Z,61.73
2023-03-22T04:55:12.128Z,61.46
2023-03-22T04:57:39.383Z,61.46
2023-03-22T05:00:08.707Z,61.20
2023-03-22T05:02:41.415Z,61.44
2023-03-22T05:05:16.282Z,61.24
2023-03-22T05:07:44.256Z,61.24
2023-03-22T05:10:11.446Z,61.75
2023-03-22T05:12:39.721Z,61.17
2023-03-22T05:15:28.545Z,61.61
2023-03-22T05:17:55.924Z,61.60
2023-03-22T05:20:25.058Z,61.48
2023-03-22T05:23:14.817Z,61.11
2023-03-22T05:25:47.680Z,61.27
2023-03-22T05:28:19.805Z,60.88
2023-03-22T05:31:05.969Z,60.61
2023-03-22T05:33:42.914Z,60.43
2023-03-22T05:36:17.030Z,59.98
2023-03-22T05:39:15.978Z,60.14
2023-03-22T05:41:44.226Z,59.77
2023-03-22T05:44:11.376Z,59.48
2023-03-22T05:46:44.263Z,59.09
2023-03-22T05:49:23.370Z,58.49
2023-03-22T05:51:50.718Z,58.60
2023-03-22T05:54:19.131Z,58.53
2023-03-22T05:56:50.202Z,58.03
2023-03-22T05:59:17.281Z,57.85
2023-03-22T06:01:44.905Z,57.78
2023-03-22T06:04:23.714Z,57.99
2023-03-22T06:06:57.482Z,57.66
2023-03-22T06:09:40.539Z,57.78
2023-03-22T06:12:12.380Z,57.22
2023-03-22T06:14:40.479Z,57.05
2023-03-22T06:17:15.425Z,57.52
2023-03-22T06:19:43.929Z,57.42
2023-03-22T06:22:13.521Z,56.92
2023-03-22T06:24:43.369Z,56.75
2023-03-22T06:27:14.623Z,56.44
2023-03-22T06:29:41.832Z,56.10
2023-03-22T06:32:09.052Z,56.27
2023-03-22T06:34:36.476Z,55.51
2023-03-22T06:37:03.639Z,55.30
2023-03-22T06:39:34.505Z,54.55
2023-03-22T06:42:01.920Z,53.56
2023-03-22T06:44:29.340Z,52.95
2023-03-22T06:47:16.576Z,48.86
2023-03-22T06:49:54.798Z,45.40
2023-03-22T06:52:26.185Z,44.33
2023-03-22T06:54:53.379Z,42.97
2023-03-22T06:57:20.641Z,42.37
2023-03-22T06:59:47.782Z,41.02
2023-03-22T07:02:14.796Z,37.42
2023-03-22T07:04:54.608Z,36.05
2023-03-22T07:07:21.713Z,34.52
2023-03-22T07:09:50.062Z,30.73
2023-03-22T07:12:18.907Z,28.02
2023-03-22T07:14:47.434Z,25.52
2023-03-22T07:17:24.990Z,23.41
2023-03-22T07:19:52.414Z,22.49
2023-03-22T07:22:24.973Z,21.55
2023-03-22T07:24:57.249Z,20.27
2023-03-22T07:27:27.705Z,19.71
2023-03-22T07:29:55.583Z,19.03
2023-03-22T07:32:23.089Z,18.46
2023-03-22T07:35:10.521Z,17.52
2023-03-22T07:37:39.980Z,17.05
2023-03-22T07:40:16.411Z,15.97
2023-03-22T07:42:44.043Z,15.41
2023-03-22T07:45:23.561Z,15.59
2023-03-22T07:48:13.989Z,15.42
2023-03-22T07:51:07.297Z,16.75
2023-03-22T07:53:34.609Z,18.25
2023-03-22T07:56:04.545Z,19.97
2023-03-22T07:58:31.847Z,21.16
2023-03-22T08:01:05.089Z,22.89
2023-03-22T08:03:54.421Z,24.67
2023-03-22T08:06:43.031Z,25.53
2023-03-22T08:09:11.699Z,26.01
2023-03-22T08:11:38.791Z,27.07
2023-03-22T08:14:06.320Z,27.97
2023-03-22T08:16:38.532Z,28.72
2023-03-22T08:19:06.827Z,29.58
2023-03-22T08:21:37.420Z,30.13
2023-03-22T08:24:07.550Z,30.46
2023-03-22T08:26:57.739Z,30.98
2023-03-22T08:29:39.131Z,31.88
2023-03-22T08:32:07.900Z,31.99
2023-03-22T08:34:40.203Z,32.07
2023-03-22T08:37:08.800Z,32.94
2023-03-22T08:39:36.801Z,33.77
2023-03-22T08:42:19.014Z,33.38
2023-03-22T08:44:47.141Z,33.66
2023-03-22T08:47:14.531Z,34.25
2023-03-22T08:49:43.377Z,33.96
2023-03-22T08:52:27.157Z,34.06
2023-03-22T08:55:02.093Z,34.63
2023-03-22T08:57:50.583Z,34.90
2023-03-22T09:00:36.483Z,35.62
2023-03-22T09:03:42.526Z,35.82
2023-03-22T09:06:11.379Z,35.87
2023-03-22T09:08:42.416Z,36.26
2023-03-22T09:11:13.828Z,36.11
2023-03-22T09:13:43.038Z,36.44
2023-03-22T09:16:10.248Z,37.07
2023-03-22T09:18:38.842Z,36.94
2023-03-22T09:21:12.346Z,37.00
2023-03-22T09:24:08.810Z,36.51
2023-03-22T09:26:50.577Z,33.23
2023-03-22T09:29:19.616Z,29.92
2023-03-22T09:31:49.103Z,28.76
2023-03-22T09:34:20.283Z,27.79
2023-03-22T09:36:47.676Z,27.28
2023-03-22T09:39:18.454Z,26.58
2023-03-22T09:41:55.181Z,26.66
2023-03-22T09:44:39.568Z,27.51
2023-03-22T09:47:19.510Z,28.69
2023-03-22T09:49:53.711Z,28.60
2023-03-22T09:52:21.796Z,29.38
2023-03-22T09:54:51.517Z,30.42
2023-03-22T09:57:33.381Z,30.78
2023-03-22T10:00:16.692Z,32.24
2023-03-22T10:02:46.633Z,32.61
2023-03-22T10:05:34.688Z,33.20
2023-03-22T10:08:05.009Z,33.97
2023-03-22T10:10:32.363Z,34.21
2023-03-22T10:13:23.508Z,35.12
2023-03-22T10:15:59.260Z,35.47
2023-03-22T10:18:39.598Z,36.01
2023-03-22T10:21:14.579Z,36.42
2023-03-22T10:24:20.465Z,36.93
2023-03-22T10:26:49.230Z,37.07
2023-03-22T10:29:39.811Z,37.57
2023-03-22T10:32:15.272Z,37.65
2023-03-22T10:34:43.696Z,37.83
2023-03-22T10:37:17.544Z,37.26
2023-03-22T10:39:50.033Z,37.71
2023-03-22T10:42:21.729Z,37.53
2023-03-22T10:44:54.714Z,37.67
2023-03-22T10:47:33.641Z,38.01
2023-03-22T10:50:05.092Z,37.67
2023-03-22T10:52:44.805Z,37.30
2023-03-22T10:55:13.817Z,37.44
2023-03-22T10:57:43.409Z,37.22
2023-03-22T11:00:15.356Z,37.32
2023-03-22T11:02:53.699Z,37.01
2023-03-22T11:05:27.430Z,37.04
2023-03-22T11:07:55.088Z,37.40
2023-03-22T11:10:23.646Z,37.68
2023-03-22T11:12:54.093Z,37.68
2023-03-22T11:15:30.705Z,38.13
2023-03-22T11:18:16.872Z,38.47
2023-03-22T11:20:58.213Z,39.08
2023-03-22T11:23:26.174Z,39.74
2023-03-22T11:25:56.700Z,40.65
2023-03-22T11:28:36.305Z,41.32
2023-03-22T11:31:11.246Z,40.93
2023-03-22T11:33:54.801Z,41.59
2023-03-22T11:36:22.387Z,42.14
2023-03-22T11:38:57.579Z,42.63
2023-03-22T11:41:31.012Z,42.91
2023-03-22T11:44:12.341Z,42.82
2023-03-22T11:46:40.389Z,43.50
2023-03-22T11:49:14.800Z,44.07
2023-03-22T11:51:43.968Z,44.30
2023-03-22T11:54:16.839Z,44.38
2023-03-22T11:56:47.681Z,45.43
2023-03-22T11:59:37.174Z,44.52
2023-03-22T12:02:34.712Z,45.27
2023-03-22T12:05:09.424Z,46.01
2023-03-22T12:07:37.803Z,45.72
2023-03-22T12:10:23.308Z,45.67
2023-03-22T12:12:56.103Z,44.79
2023-03-22T12:15:35.629Z,44.60
2023-03-22T12:18:08.791Z,44.17
2023-03-22T12:20:35.795Z,43.47
2023-03-22T12:23:14.348Z,43.73
2023-03-22T12:26:03.861Z,43.31
2023-03-22T12:28:58.827Z,43.44
2023-03-22T12:32:01.211Z,43.44
2023-03-22T12:34:43.732Z,43.93
2023-03-22T12:37:17.848Z,43.28
2023-03-22T12:40:07.476Z,43.04
2023-03-22T12:42:58.995Z,44.17
2023-03-22T12:45:32.004Z,44.44
2023-03-22T12:48:10.638Z,44.77
2023-03-22T12:50:48.584Z,44.75
2023-03-22T12:53:18.888Z,45.16
2023-03-22T12:55:47.582Z,45.72
2023-03-22T12:58:22.307Z,46.80
2023-03-22T13:00:59.390Z,46.89
2023-03-22T13:03:36.969Z,47.17
2023-03-22T13:06:42.069Z,46.32
2023-03-22T13:09:30.090Z,46.61
2023-03-22T13:12:16.000Z,46.18
2023-03-22T13:14:49.606Z,46.16
2023-03-22T13:17:22.450Z,45.76
2023-03-22T13:19:55.579Z,46.51
2023-03-22T13:22:38.070Z,45.90
2023-03-22T13:25:14.709Z,45.40
2023-03-22T13:28:00.004Z,45.96
2023-03-22T13:30:50.260Z,45.51
2023-03-22T13:33:20.202Z,45.05
2023-03-22T13:35:57.494Z,45.49
2023-03-22T13:38:35.240Z,46.01
2023-03-22T13:41:14.213Z,45.88
2023-03-22T13:43:54.342Z,45.20
2023-03-22T13:46:21.470Z,45.61
2023-03-22T13:48:52.078Z,45.38
2023-03-22T13:51:26.589Z,44.33
2023-03-22T13:53:53.749Z,43.92
2023-03-22T13:56:43.162Z,43.83
2023-03-22T13:59:23.034Z,42.86
2023-03-22T14:02:08.539Z,44.44
2023-03-22T14:04:46.410Z,43.31
2023-03-22T14:07:40.181Z,43.23
2023-03-22T14:10:16.454Z,43.84
2023-03-22T14:12:46.374Z,44.03
2023-03-22T14:15:21.361Z,43.11
2023-03-22T14:18:15.126Z,42.18
2023-03-22T14:20:42.933Z,43.10
